Time;durP1;ratioP1;P1;durP2;ratioP2;P2;SDS_P1;SDS_P2;PMS_P1;PMS_P2;Temp;Humidity;BMP_temperature;BMP_pressure;BME280_temperature;BME280_humidity;BME280_pressure;Samples;Min_cycle;Max_cycle;Signal;HPM_P1;HPM_P2
2023/02/14 00:02:00;;;;;;;;;73.00;59.25;;;;;10.39;57.39;102589.06;6303468;22;47316;-74
2023/02/14 00:04:26;;;;;;;;;74.00;57.75;;;;;10.34;57.60;102590.16;6331680;22;45716;-75
2023/02/14 00:06:51;;;;;;;;;76.75;58.75;;;;;10.32;57.34;102584.97;6331191;22;45678;-73
2023/02/14 00:09:18;;;;;;;;;78.75;57.25;;;;;10.36;57.44;102596.22;6331457;22;45560;-75
2023/02/14 00:11:43;;;;;;;;;78.25;60.25;;;;;10.32;57.54;102590.22;6332282;22;46119;-74
2023/02/14 00:20:29;;;;;;;;;71.00;56.75;;;;;10.31;57.45;102592.91;6327093;22;45957;-74
2023/02/14 00:22:54;;;;;;;;;73.75;57.25;;;;;10.29;57.76;102592.97;6330634;22;45521;-73
2023/02/14 00:25:20;;;;;;;;;74.00;58.00;;;;;10.30;57.84;102594.69;6329426;22;45582;-73
2023/02/14 00:27:45;;;;;;;;;75.00;56.75;;;;;10.28;57.79;102593.88;6329847;22;45601;-73
2023/02/14 00:30:12;;;;;;;;;75.25;57.75;;;;;10.30;57.71;102594.69;6331341;22;47082;-72
2023/02/14 00:32:39;;;;;;;;;77.75;58.50;;;;;10.30;57.84;102593.81;6331552;22;47017;-73
2023/02/14 00:35:06;;;;;;;;;78.75;59.75;;;;;10.27;57.57;102586.91;6332571;22;45622;-73
2023/02/14 00:37:31;;;;;;;;;75.00;58.25;;;;;10.27;57.73;102578.19;6305068;22;45897;-74
2023/02/14 00:39:57;;;;;;;;;72.75;56.00;;;;;10.24;57.85;102579.19;6333173;22;46406;-73
2023/02/14 00:42:22;;;;;;;;;77.00;59.75;;;;;10.26;57.76;102577.34;6331310;22;46223;-73
2023/02/14 00:44:47;;;;;;;;;78.25;59.25;;;;;10.22;57.81;102570.53;6332616;22;45607;-73
2023/02/14 00:50:34;;;;;;;;;77.25;60.25;;;;;10.18;58.02;102566.31;6332738;22;46018;-74
2023/02/14 00:52:59;;;;;;;;;75.75;58.75;;;;;10.17;57.83;102563.75;6303588;22;47260;-72
2023/02/14 00:55:25;;;;;;;;;75.33;57.33;;;;;10.21;57.85;102560.94;6333041;22;45869;-72
2023/02/14 00:57:50;;;;;;;;;74.25;58.00;;;;;10.20;58.09;102561.03;6331775;22;45686;-72
2023/02/14 01:00:16;;;;;;;;;75.00;59.50;;;;;10.20;58.03;102558.41;6332422;22;45527;-74
2023/02/14 01:02:41;;;;;;;;;80.00;58.50;;;;;10.16;58.10;102551.53;6303966;22;45997;-74
2023/02/14 01:05:07;;;;;;;;;75.75;59.25;;;;;10.18;57.97;102560.22;6332621;22;45449;-73
2023/02/14 01:07:32;;;;;;;;;77.25;58.25;;;;;10.17;58.14;102559.38;6332516;22;45951;-74
2023/02/14 01:09:58;;;;;;;;;77.00;58.00;;;;;10.15;57.97;102563.75;6331816;22;49236;-73
2023/02/14 01:12:23;;;;;;;;;77.33;60.33;;;;;10.15;58.25;102560.31;6331899;22;46822;-72
2023/02/14 01:14:48;;;;;;;;;76.25;58.75;;;;;10.02;57.91;102544.22;6304049;22;45823;-73
2023/02/14 01:20:35;;;;;;;;;79.25;61.00;;;;;10.10;58.31;102552.63;6328928;22;45651;-73
2023/02/14 01:23:01;;;;;;;;;79.75;59.50;;;;;10.09;58.05;102551.75;6303944;22;46795;-73
2023/02/14 01:25:27;;;;;;;;;73.25;56.75;;;;;10.07;58.22;102552.75;6331564;22;45652;-74
2023/02/14 01:27:52;;;;;;;;;77.00;60.25;;;;;10.07;58.22;102553.59;6332141;22;45490;-73
2023/02/14 01:30:18;;;;;;;;;78.25;59.25;;;;;10.06;58.34;102551.88;6332485;22;46350;-72
2023/02/14 01:36:06;;;;;;;;;77.75;58.50;;;;;10.02;58.51;102558.16;6332478;22;45675;-75
2023/02/14 01:38:32;;;;;;;;;79.25;59.75;;;;;9.91;58.15;102547.22;6305091;22;45778;-74
2023/02/14 01:40:58;;;;;;;;;81.25;61.00;;;;;10.00;58.44;102561.72;6330794;22;45591;-73
2023/02/14 01:43:24;;;;;;;;;78.75;59.75;;;;;9.95;58.64;102558.44;6331718;22;45971;-74
2023/02/14 01:45:49;;;;;;;;;79.25;57.75;;;;;9.94;58.46;102568.03;6331473;22;46300;-74
2023/02/14 01:48:19;;;;;;;;;77.50;60.75;;;;;9.88;58.32;102555.19;6332320;22;45411;-72
2023/02/14 01:50:47;;;;;;;;;78.50;58.00;;;;;9.87;58.91;102553.50;6332768;22;46213;-74
2023/02/14 01:53:22;;;;;;;;;82.25;61.75;;;;;9.88;58.69;102564.81;6303542;22;46279;-75
2023/02/14 01:55:57;;;;;;;;;78.50;59.00;;;;;9.84;58.61;102550.13;6331471;22;45750;-74
2023/02/14 01:58:26;;;;;;;;;71.50;57.00;;;;;9.87;58.74;102555.25;6332396;22;45642;-74
2023/02/14 02:07:07;;;;;;;;;73.25;58.75;;;;;9.82;58.61;102544.97;6332024;22;45639;-73
2023/02/14 02:09:53;;;;;;;;;80.25;61.00;;;;;9.80;58.68;102549.38;6332057;22;45639;-74
2023/02/14 02:12:19;;;;;;;;;85.00;63.50;;;;;9.74;58.68;102533.91;6331019;22;47663;-74
2023/02/14 02:14:45;;;;;;;;;78.50;61.00;;;;;9.79;58.82;102546.81;6331566;22;47457;-73
2023/02/14 02:17:32;;;;;;;;;84.50;64.00;;;;;9.79;58.71;102546.81;6303383;22;45756;-73
2023/02/14 02:20:25;;;;;;;;;81.75;63.50;;;;;9.77;58.86;102549.47;6331077;22;45457;-73
2023/02/14 02:22:53;;;;;;;;;83.00;62.75;;;;;9.76;58.82;102547.78;6331153;22;46463;-74
2023/02/14 02:25:46;;;;;;;;;82.00;63.25;;;;;9.74;58.78;102552.22;6330899;22;46458;-74
2023/02/14 02:28:29;;;;;;;;;83.50;63.25;;;;;9.72;58.79;102554.03;6331671;22;45601;-72
2023/02/14 02:34:34;;;;;;;;;82.25;62.50;;;;;9.68;58.98;102550.69;6331986;22;46088;-74
2023/02/14 02:37:23;;;;;;;;;85.50;64.00;;;;;9.65;59.04;102553.41;6332299;22;46359;-74
2023/02/14 02:40:08;;;;;;;;;83.00;62.00;;;;;9.64;58.95;102546.47;6313611;22;45772;-73
2023/02/14 02:42:56;;;;;;;;;90.00;66.75;;;;;9.63;58.84;102543.91;6331718;22;45632;-74
2023/02/14 02:46:46;;;;;;;;;86.75;65.00;;;;;9.61;58.94;102540.47;6331296;22;47444;-70
2023/02/14 02:55:00;;;;;;;;;81.75;64.00;;;;;9.53;59.04;102524.22;6266095;22;45615;-74
2023/02/14 02:57:32;;;;;;;;;84.00;64.25;;;;;9.51;59.00;102534.72;6264946;22;47377;-73
2023/02/14 03:00:01;;;;;;;;;82.25;64.00;;;;;9.53;58.84;102527.69;6265274;22;47405;-73
2023/02/14 03:04:51;;;;;;;;;83.00;65.25;;;;;9.50;58.97;102521.72;6264902;22;45871;-73
2023/02/14 03:05:27;;;;;;;;;85.00;64.25;;;;;9.50;59.11;102530.41;6265546;22;45875;-74
2023/02/14 03:07:52;;;;;;;;;81.50;64.00;;;;;9.51;59.06;102533.88;6238916;22;47323;-72
2023/02/14 03:10:26;;;;;;;;;84.75;65.25;;;;;9.47;59.18;102529.66;6265272;22;46067;-74
2023/02/14 03:13:11;;;;;;;;;85.75;65.25;;;;;9.45;59.01;102528.84;6265049;22;45902;-73
2023/02/14 03:16:03;;;;;;;;;87.75;64.50;;;;;9.46;59.37;102538.41;6265668;22;45546;-74
2023/02/14 03:18:43;;;;;;;;;86.75;66.00;;;;;9.45;59.21;102534.09;6203760;22;45831;-72
2023/02/14 03:21:20;;;;;;;;;82.25;61.25;;;;;9.43;59.35;102534.16;6203817;22;46064;-74
2023/02/14 03:24:14;;;;;;;;;84.75;66.50;;;;;9.41;59.27;102535.09;6203907;22;45693;-72
2023/02/14 03:27:02;;;;;;;;;85.75;64.25;;;;;9.24;59.40;102502.56;6203416;22;45887;-73
2023/02/14 03:29:57;;;;;;;;;84.00;62.25;;;;;9.33;59.45;102518.84;6203063;22;47289;-73
2023/02/14 03:33:06;;;;;;;;;81.25;62.00;;;;;9.37;59.36;102528.28;6204085;22;46003;-72
2023/02/14 03:35:41;;;;;;;;;85.50;65.00;;;;;9.34;59.61;102528.41;6204418;22;46021;-73
2023/02/14 03:38:42;;;;;;;;;85.50;65.75;;;;;9.34;59.35;102525.78;6204253;22;45778;-73
2023/02/14 03:41:13;;;;;;;;;89.00;67.50;;;;;9.33;59.69;102534.53;6144449;23;46450;-73
2023/02/14 03:43:41;;;;;;;;;82.75;63.50;;;;;9.29;59.68;102523.31;6143677;22;46209;-73
2023/02/14 03:46:12;;;;;;;;;86.25;64.75;;;;;9.28;59.59;102530.28;6144512;23;45784;-73
2023/02/14 03:48:40;;;;;;;;;84.75;66.00;;;;;9.23;59.54;102520.94;6144385;23;45512;-73
2023/02/14 03:51:09;;;;;;;;;90.75;68.75;;;;;9.24;59.68;102531.31;6119730;23;46535;-74
2023/02/14 03:53:39;;;;;;;;;86.25;61.75;;;;;9.25;59.54;102537.41;6144052;23;46113;-73
2023/02/14 03:56:31;;;;;;;;;90.50;67.25;;;;;9.22;59.69;102527.91;6142692;23;45804;-74
2023/02/14 03:59:04;;;;;;;;;80.50;63.75;;;;;9.12;59.79;102520.44;6178075;23;45586;-72
2023/02/14 04:01:38;;;;;;;;;83.50;64.00;;;;;9.20;59.87;102532.34;6174861;23;46317;-74
2023/02/14 04:04:06;;;;;;;;;87.50;67.00;;;;;9.15;59.82;102526.41;6174284;23;46204;-73
2023/02/14 04:06:31;;;;;;;;;81.50;62.00;;;;;9.15;59.93;102525.56;6175489;23;45701;-73
2023/02/14 04:08:57;;;;;;;;;86.25;66.00;;;;;9.16;59.82;102525.50;6174024;23;45481;-73
2023/02/14 04:11:22;;;;;;;;;90.25;69.75;;;;;9.11;59.77;102514.38;6175383;23;46353;-73
2023/02/14 04:13:47;;;;;;;;;85.50;63.75;;;;;9.13;59.90;102525.59;6175106;23;46190;-72
2023/02/14 04:16:13;;;;;;;;;84.50;64.00;;;;;9.14;59.69;102526.47;6222837;22;45529;-73
2023/02/14 04:21:22;;;;;;;;;86.25;65.00;;;;;9.09;60.28;102533.59;6332068;22;45929;-73
2023/02/14 04:23:47;;;;;;;;;84.75;62.75;;;;;9.09;60.04;102537.09;6331716;22;46021;-74
2023/02/14 04:26:13;;;;;;;;;80.75;62.00;;;;;9.07;59.99;102535.44;6332822;22;45602;-74
2023/02/14 04:28:38;;;;;;;;;83.67;65.00;;;;;9.03;59.94;102529.44;6333119;22;45609;-74
2023/02/14 04:31:05;;;;;;;;;82.75;64.00;;;;;9.02;60.29;102532.94;6331841;22;47273;-73
2023/02/14 04:33:31;;;;;;;;;85.75;66.75;;;;;9.03;60.06;102539.91;6331651;22;46245;-74
2023/02/14 04:35:57;;;;;;;;;83.25;63.00;;;;;9.04;60.13;102544.22;6331836;22;45879;-74
2023/02/14 04:38:23;;;;;;;;;86.25;65.50;;;;;9.02;60.13;102529.47;6332107;22;45557;-73
2023/02/14 04:40:50;;;;;;;;;89.50;67.25;;;;;9.02;60.11;102532.94;6332451;22;46748;-74
2023/02/14 04:43:15;;;;;;;;;79.00;59.00;;;;;9.01;60.30;102538.25;6331975;22;46036;-74
2023/02/14 04:45:41;;;;;;;;;80.25;64.00;;;;;9.00;60.16;102529.56;6332175;22;45473;-74
2023/02/14 04:48:06;;;;;;;;;87.75;67.25;;;;;8.96;60.27;102522.69;6331722;22;45422;-74
2023/02/14 04:53:53;;;;;;;;;87.00;65.75;;;;;8.87;60.32;102525.63;6332218;22;45949;-72
2023/02/14 04:56:18;;;;;;;;;88.25;65.75;;;;;8.87;59.97;102533.47;6303769;22;45792;-73
2023/02/14 04:58:44;;;;;;;;;89.75;66.25;;;;;8.87;60.43;102536.09;6332059;22;45515;-74
2023/02/14 05:01:09;;;;;;;;;92.25;67.75;;;;;8.85;60.34;102535.31;6332260;22;46585;-73
2023/02/14 05:03:34;;;;;;;;;89.33;67.33;;;;;8.87;60.49;102536.09;6331019;22;45512;-74
2023/02/14 05:06:00;;;;;;;;;91.25;66.50;;;;;8.81;60.33;102531.06;6331886;22;45694;-74
2023/02/14 05:08:25;;;;;;;;;81.50;62.75;;;;;8.81;60.46;102534.53;6331758;22;45700;-73
2023/02/14 05:10:51;;;;;;;;;95.00;68.75;;;;;8.83;60.45;102540.56;6333104;22;46219;-75
2023/02/14 05:13:16;;;;;;;;;87.00;67.33;;;;;8.81;60.48;102538.91;6332552;22;45915;-74
2023/02/14 05:15:44;;;;;;;;;87.25;66.00;;;;;8.82;60.41;102538.00;6331891;22;45713;-74
2023/02/14 05:18:09;;;;;;;;;85.50;65.25;;;;;8.77;60.63;102532.06;6332095;22;45799;-73
2023/02/14 05:24:09;;;;;;;;;90.00;67.75;;;;;8.78;60.43;102536.41;6327744;22;45983;-74
2023/02/14 05:26:35;;;;;;;;;87.00;66.00;;;;;8.74;60.48;102522.59;6331303;22;45567;-72
2023/02/14 05:29:00;;;;;;;;;90.00;65.50;;;;;8.75;60.64;102539.94;6332605;22;45645;-74
2023/02/14 05:31:25;;;;;;;;;86.50;65.50;;;;;8.75;60.70;102534.72;6331229;22;46287;-74
2023/02/14 05:33:51;;;;;;;;;90.00;66.50;;;;;8.71;60.51;102529.66;6331479;22;45965;-74
2023/02/14 05:36:16;;;;;;;;;91.25;68.75;;;;;8.72;60.80;102541.81;6332200;22;45570;-74
2023/02/14 05:38:42;;;;;;;;;86.00;66.00;;;;;8.71;60.74;102532.25;6331824;22;45604;-74
2023/02/14 05:41:09;;;;;;;;;91.00;67.00;;;;;8.68;60.91;102530.63;6331738;22;46542;-74
2023/02/14 05:43:34;;;;;;;;;92.00;67.25;;;;;8.67;60.62;102517.59;6332265;22;45946;-74
2023/02/14 05:45:59;;;;;;;;;81.67;64.00;;;;;8.60;60.80;102510.84;6332157;22;45541;-75
2023/02/14 05:48:25;;;;;;;;;86.00;63.75;;;;;8.63;60.65;102523.84;6333160;22;45415;-73
2023/02/14 05:54:12;;;;;;;;;89.00;65.25;;;;;8.62;60.77;102528.19;6332236;22;45670;-74
2023/02/14 05:56:37;;;;;;;;;84.25;66.00;;;;;8.62;60.97;102529.97;6332355;22;45703;-76
2023/02/14 05:59:02;;;;;;;;;84.75;65.25;;;;;8.61;60.88;102534.31;6331947;22;45526;-74
2023/02/14 06:01:28;;;;;;;;;86.25;66.00;;;;;8.60;60.89;102529.13;6331389;22;46419;-75
2023/02/14 06:03:53;;;;;;;;;85.67;63.00;;;;;8.53;60.67;102520.63;6331302;22;49457;-75
2023/02/14 06:09:40;;;;;;;;;87.50;65.75;;;;;8.47;60.94;102509.56;6331948;22;45633;-74
2023/02/14 06:12:06;;;;;;;;;89.00;65.75;;;;;8.52;61.46;102518.97;6331098;22;46334;-72
2023/02/14 06:14:31;;;;;;;;;87.00;65.25;;;;;8.54;60.90;102519.75;6330091;22;46100;-73
2023/02/14 06:16:56;;;;;;;;;86.75;67.50;;;;;8.51;61.06;102526.84;6332111;22;45584;-73
2023/02/14 06:19:22;;;;;;;;;85.50;66.25;;;;;8.54;61.18;102527.56;6331051;22;45512;-72
2023/02/14 06:25:09;;;;;;;;;86.75;65.25;;;;;8.51;61.21;102522.47;6325674;22;45746;-72
2023/02/14 06:27:34;;;;;;;;;83.00;65.75;;;;;8.53;61.37;102530.25;6329793;22;45908;-73
2023/02/14 06:29:59;;;;;;;;;88.00;66.67;;;;;8.52;61.23;102520.72;6331422;22;45688;-72
2023/02/14 06:32:25;;;;;;;;;81.00;63.25;;;;;8.52;61.29;102523.31;6331446;22;45622;-73
2023/02/14 06:34:50;;;;;;;;;79.25;62.50;;;;;8.50;61.29;102512.06;6331193;22;46776;-73
2023/02/14 06:37:16;;;;;;;;;86.50;63.25;;;;;8.52;61.25;102518.97;6331223;22;45667;-73
2023/02/14 06:39:41;;;;;;;;;81.50;62.00;;;;;8.43;61.40;102503.56;6331634;22;45648;-73
2023/02/14 06:42:06;;;;;;;;;85.50;63.25;;;;;8.48;61.52;102517.31;6331143;22;46258;-72
2023/02/14 06:44:32;;;;;;;;;84.75;65.75;;;;;8.43;61.45;102520.09;6332248;22;45835;-73
2023/02/14 06:46:57;;;;;;;;;81.75;65.50;;;;;8.41;61.33;102523.66;6331853;22;45528;-71
2023/02/14 06:49:22;;;;;;;;;81.00;63.75;;;;;8.43;61.67;102521.84;6332129;22;45459;-72
2023/02/14 06:55:12;;;;;;;;;82.25;65.50;;;;;8.43;61.62;102525.31;6332367;22;45983;-73
2023/02/14 06:57:38;;;;;;;;;80.75;63.25;;;;;8.43;61.74;102525.31;6331430;22;45678;-73
2023/02/14 07:00:04;;;;;;;;;82.00;64.00;;;;;8.36;61.64;102515.13;6332803;22;45538;-73
2023/02/14 07:02:29;;;;;;;;;87.50;65.75;;;;;8.42;61.63;102518.38;6331501;22;46862;-73
2023/02/14 07:04:54;;;;;;;;;85.00;65.00;;;;;8.42;61.61;102526.19;6331000;22;46991;-72
2023/02/14 07:10:41;;;;;;;;;84.25;63.50;;;;;8.37;61.70;102530.72;6331692;22;45747;-73
2023/02/14 07:13:07;;;;;;;;;83.75;64.50;;;;;8.42;61.81;102541.03;6303197;22;48316;-73
2023/02/14 07:15:32;;;;;;;;;90.50;66.75;;;;;8.35;61.68;102537.75;6330874;22;47095;-73
2023/02/14 07:17:58;;;;;;;;;86.50;65.00;;;;;8.42;61.71;102544.47;6331687;22;45561;-72
2023/02/14 07:20:24;;;;;;;;;86.75;65.00;;;;;8.40;62.02;102530.63;6303088;22;45846;-73
2023/02/14 07:22:49;;;;;;;;;87.75;65.75;;;;;8.42;61.85;102544.47;6330592;22;46266;-74
2023/02/14 07:25:15;;;;;;;;;87.00;65.75;;;;;8.28;61.74;102514.44;6330459;22;45546;-73
2023/02/14 07:27:41;;;;;;;;;76.50;57.25;;;;;8.35;61.85;102529.06;6330724;22;45482;-72
2023/02/14 07:30:09;;;;;;;;;84.75;65.75;;;;;8.41;61.73;102544.56;6331184;22;45823;-72
2023/02/14 07:32:37;;;;;;;;;88.00;64.75;;;;;8.40;61.64;102542.84;6331092;22;47373;-74
2023/02/14 07:35:03;;;;;;;;;89.00;66.00;;;;;8.41;61.61;102542.81;6330827;22;46095;-72
2023/02/14 07:40:52;;;;;;;;;92.00;68.50;;;;;8.37;61.70;102530.72;6332751;22;45640;-73
2023/02/14 07:43:17;;;;;;;;;83.00;62.75;;;;;8.41;61.59;102545.41;6331983;22;47525;-74
2023/02/14 07:45:43;;;;;;;;;86.67;66.67;;;;;8.41;61.49;102539.34;6332505;22;45881;-73
2023/02/14 07:48:08;;;;;;;;;81.75;62.25;;;;;8.42;61.56;102538.44;6332552;22;45601;-73
2023/02/14 07:50:33;;;;;;;;;88.00;64.50;;;;;8.42;61.58;102535.81;6333185;22;45672;-73
2023/02/14 07:56:20;;;;;;;;;90.75;68.00;;;;;8.43;61.57;102532.28;6332228;22;46074;-72
2023/02/14 07:58:46;;;;;;;;;88.00;68.00;;;;;8.42;61.75;102544.47;6331934;22;45545;-73
2023/02/14 08:01:11;;;;;;;;;80.75;62.75;;;;;8.45;61.81;102537.47;6332213;22;45659;-73
2023/02/14 08:03:37;;;;;;;;;89.25;65.75;;;;;8.40;61.71;102530.63;6332040;22;47362;-73
2023/02/14 08:06:02;;;;;;;;;86.00;66.25;;;;;8.40;61.84;102528.03;6332663;22;45741;-73
2023/02/14 08:08:29;;;;;;;;;90.00;66.75;;;;;8.47;61.85;102535.69;6331949;22;45635;-73
2023/02/14 08:10:55;;;;;;;;;88.00;64.00;;;;;8.44;61.83;102531.38;6332443;22;45487;-73
2023/02/14 08:13:20;;;;;;;;;91.25;66.75;;;;;8.49;61.64;102541.69;6332403;22;46980;-74
2023/02/14 08:16:03;;;;;;;;;93.50;66.50;;;;;8.50;61.87;102535.56;6304699;22;47085;-73
2023/02/14 08:18:30;;;;;;;;;87.25;66.25;;;;;8.52;61.88;102531.16;6333302;22;45703;-73
2023/02/14 08:20:55;;;;;;;;;90.50;70.50;;;;;8.54;61.91;102534.56;6332517;22;45499;-72
2023/02/14 08:26:42;;;;;;;;;92.50;70.00;;;;;8.56;61.91;102527.53;6326248;22;45961;-73
2023/02/14 08:29:08;;;;;;;;;91.67;66.00;;;;;8.59;61.66;102533.50;6304030;22;45655;-72
2023/02/14 08:31:33;;;;;;;;;89.00;65.50;;;;;8.61;61.70;102530.84;6332210;22;45656;-72
2023/02/14 08:33:58;;;;;;;;;88.00;67.00;;;;;8.64;61.66;102531.59;6332819;22;45695;-72
2023/02/14 08:36:24;;;;;;;;;89.00;66.33;;;;;8.66;61.86;102528.94;6303633;22;46128;-73
2023/02/14 08:38:49;;;;;;;;;87.25;66.75;;;;;8.69;61.87;102534.09;6331476;22;45538;-73
2023/02/14 08:41:16;;;;;;;;;85.67;66.67;;;;;8.71;61.69;102540.09;6332357;22;45557;-72
2023/02/14 08:43:43;;;;;;;;;89.00;67.50;;;;;8.73;61.67;102543.53;6331554;22;45738;-73
2023/02/14 08:46:11;;;;;;;;;87.25;67.25;;;;;8.76;61.62;102552.13;6332494;22;46202;-72
2023/02/14 08:48:36;;;;;;;;;88.50;67.00;;;;;8.78;61.55;102554.69;6331165;22;45608;-72
2023/02/14 08:51:08;;;;;;;;;91.25;66.75;;;;;8.82;61.59;102551.06;6331477;22;45482;-73
2023/02/14 08:56:57;;;;;;;;;90.00;68.00;;;;;8.85;61.42;102546.59;6332307;22;46062;-73
2023/02/14 08:59:22;;;;;;;;;88.00;67.25;;;;;8.90;61.77;102554.31;6332965;22;45493;-72
2023/02/14 09:01:47;;;;;;;;;92.75;67.75;;;;;8.91;61.36;102548.13;6333838;22;45861;-74
2023/02/14 09:04:13;;;;;;;;;93.50;71.25;;;;;8.91;61.56;102529.84;6333057;22;45705;-74
2023/02/14 09:06:38;;;;;;;;;91.75;70.00;;;;;8.98;61.60;102526.13;6332419;22;46287;-73
2023/02/14 09:09:05;;;;;;;;;90.00;66.50;;;;;8.97;61.65;102529.66;6332704;22;45541;-72
2023/02/14 09:11:30;;;;;;;;;90.75;68.75;;;;;9.04;61.78;102517.22;6333277;22;45627;-73
2023/02/14 09:13:56;;;;;;;;;86.25;68.25;;;;;9.06;61.43;102520.66;6333170;22;45599;-72
2023/02/14 09:16:22;;;;;;;;;83.00;65.75;;;;;9.09;61.54;102523.16;6332327;22;46120;-73
2023/02/14 09:18:48;;;;;;;;;90.25;75.50;;;;;9.10;61.51;102525.72;6304666;22;45897;-73
2023/02/14 09:21:16;;;;;;;;;93.25;70.00;;;;;9.12;61.59;102529.13;6333132;22;45660;-72
2023/02/14 09:27:05;;;;;;;;;89.50;67.75;;;;;9.15;61.41;102523.81;6331157;22;45939;-73
2023/02/14 09:29:32;;;;;;;;;91.00;67.50;;;;;9.21;61.32;102525.34;6333014;22;45820;-73
2023/02/14 09:32:00;;;;;;;;;94.75;68.75;;;;;9.15;61.25;102513.34;6331210;22;45667;-72
2023/02/14 09:39:55;;;;;;;;;87.75;64.50;;;;;9.30;61.02;102518.94;6332310;22;45769;-72
2023/02/14 09:43:04;;;;;;;;;85.50;68.00;;;;;9.34;61.17;102523.19;6332754;22;45576;-72
2023/02/14 09:45:32;;;;;;;;;85.00;66.00;;;;;9.35;61.26;102514.41;6304059;22;45510;-73
2023/02/14 09:48:03;;;;;;;;;85.75;66.25;;;;;9.39;61.25;102527.34;6331534;22;46891;-72
2023/02/14 09:50:58;;;;;;;;;90.25;66.50;;;;;9.43;61.18;102525.47;6332824;22;45657;-74
2023/02/14 09:53:28;;;;;;;;;92.75;70.50;;;;;9.46;61.11;102513.09;6332494;22;45536;-73
2023/02/14 09:56:17;;;;;;;;;85.50;66.25;;;;;9.49;61.10;102513.03;6331203;22;46491;-73
2023/02/14 09:58:54;;;;;;;;;88.75;68.75;;;;;9.52;60.76;102501.56;6331639;22;46129;-73
2023/02/14 10:01:25;;;;;;;;;89.75;70.00;;;;;9.54;60.92;102505.00;6330177;22;45730;-71
2023/02/14 10:03:58;;;;;;;;;90.00;65.50;;;;;9.57;60.83;102508.34;6303476;22;45775;-73
2023/02/14 10:06:30;;;;;;;;;85.00;65.25;;;;;9.52;60.89;102498.94;6303409;22;48329;-74
2023/02/14 10:09:12;;;;;;;;;87.25;66.25;;;;;9.62;60.91;102516.88;6330892;22;46827;-72
2023/02/14 10:11:39;;;;;;;;;91.75;67.00;;;;;9.62;60.82;102510.78;6331285;22;45636;-73
2023/02/14 10:14:14;;;;;;;;;87.00;69.25;;;;;9.68;61.07;102516.66;6332498;22;45487;-72
2023/02/14 10:16:48;;;;;;;;;90.00;69.50;;;;;9.70;60.75;102511.38;6330927;22;47340;-73
2023/02/14 10:19:19;;;;;;;;;85.50;62.75;;;;;9.75;60.62;102519.06;6331748;22;45929;-74
2023/02/14 10:21:53;;;;;;;;;89.00;66.00;;;;;9.78;60.67;102514.56;6331347;22;45861;-73
2023/02/14 10:24:32;;;;;;;;;85.50;64.75;;;;;9.82;60.65;102512.69;6330899;22;45600;-73
2023/02/14 10:27:22;;;;;;;;;88.00;65.25;;;;;9.79;60.45;102499.69;6330071;22;46658;-73
2023/02/14 10:29:47;;;;;;;;;84.50;66.50;;;;;9.84;60.38;102501.22;6330994;22;47213;-73
2023/02/14 10:32:18;;;;;;;;;82.50;64.50;;;;;9.88;60.66;102512.47;6331932;22;45711;-72
2023/02/14 10:34:47;;;;;;;;;83.25;63.25;;;;;9.94;60.25;102502.59;6332369;22;45679;-73
2023/02/14 10:40:58;;;;;;;;;83.50;65.00;;;;;10.01;60.17;102506.69;6331754;22;45937;-73
2023/02/14 10:44:04;;;;;;;;;81.00;61.50;;;;;10.06;60.07;102501.28;6234505;22;45635;-73
2023/02/14 10:46:45;;;;;;;;;83.75;63.50;;;;;10.09;60.04;102509.03;6201098;22;45708;-72
2023/02/14 10:49:29;;;;;;;;;84.00;64.00;;;;;10.11;60.02;102496.72;6234080;22;46479;-73
2023/02/14 10:52:00;;;;;;;;;82.00;64.00;;;;;10.14;59.77;102493.13;6234252;22;47354;-73
2023/02/14 10:57:52;;;;;;;;;80.25;59.00;;;;;10.20;59.90;102500.78;6234951;22;45855;-73
2023/02/14 11:00:25;;;;;;;;;78.50;59.25;;;;;10.23;59.65;102487.56;6234859;22;47504;-73
2023/02/14 11:02:55;;;;;;;;;79.50;62.25;;;;;10.26;59.55;102490.03;6234923;22;46415;-73
2023/02/14 11:05:29;;;;;;;;;80.75;61.50;;;;;10.30;59.66;102483.78;6233535;22;45626;-72
2023/02/14 11:14:20;;;;;;;;;82.25;62.50;;;;;10.41;59.47;102465.88;6233857;22;46055;-71
2023/02/14 11:16:50;;;;;;;;;81.50;59.75;;;;;10.46;59.24;102471.78;6234284;22;45919;-74
2023/02/14 11:19:20;;;;;;;;;76.25;58.00;;;;;10.51;59.13;102467.19;6235429;22;45586;-74
2023/02/14 11:21:48;;;;;;;;;75.00;60.25;;;;;10.52;58.99;102461.91;6331140;22;47518;-72
2023/02/14 11:24:25;;;;;;;;;72.00;56.00;;;;;10.57;58.80;102453.00;6331019;22;46332;-74
2023/02/14 11:26:54;;;;;;;;;79.25;58.25;;;;;10.59;58.61;102446.75;6330861;22;45645;-73
2023/02/14 11:29:44;;;;;;;;;79.75;56.00;;;;;10.64;58.39;102438.69;6331186;22;45725;-73
2023/02/14 11:32:14;;;;;;;;;73.50;54.25;;;;;10.70;58.32;102435.81;6203130;22;46554;-73
2023/02/14 11:35:05;;;;;;;;;71.75;55.50;;;;;10.73;58.34;102436.56;6203875;22;47266;-73
2023/02/14 11:37:38;;;;;;;;;76.50;55.75;;;;;10.76;58.40;102433.81;6203125;22;45805;-74
2023/02/14 11:40:05;;;;;;;;;69.25;55.75;;;;;10.82;58.34;102433.53;6203652;22;45848;-72
2023/02/14 11:42:43;;;;;;;;;70.00;54.25;;;;;10.87;57.87;102434.19;6203657;22;46808;-73
2023/02/14 11:45:35;;;;;;;;;70.25;54.50;;;;;10.93;57.75;102433.06;6203014;22;47326;-74
2023/02/14 11:48:13;;;;;;;;;69.25;54.00;;;;;10.97;57.90;102428.53;6203525;22;45934;-73
2023/02/14 11:50:39;;;;;;;;;64.75;51.50;;;;;11.03;57.77;102417.78;6178357;22;45797;-73
2023/02/14 11:53:11;;;;;;;;;68.00;54.00;;;;;11.07;57.38;102421.97;6203141;22;46674;-73
2023/02/14 11:55:37;;;;;;;;;71.00;53.00;;;;;11.11;57.58;102416.56;6202549;22;46141;-73
2023/02/14 11:58:04;;;;;;;;;69.50;53.50;;;;;11.16;57.61;102411.94;6203208;22;45477;-73
2023/02/14 12:00:31;;;;;;;;;71.50;55.50;;;;;11.18;57.13;102407.47;6203661;22;45583;-73
2023/02/14 12:03:04;;;;;;;;;69.25;53.25;;;;;11.20;56.76;102403.00;6202984;22;47149;-73
2023/02/14 12:05:34;;;;;;;;;68.75;52.75;;;;;11.25;56.72;102403.66;6202968;22;47301;-73
2023/02/14 12:08:03;;;;;;;;;66.75;51.50;;;;;11.28;57.01;102403.50;6205148;22;46087;-72
2023/02/14 12:10:34;;;;;;;;;68.50;54.75;;;;;11.32;56.94;102393.75;6330163;22;45498;-72
2023/02/14 12:13:01;;;;;;;;;74.50;56.00;;;;;11.37;56.70;102381.25;6330879;22;45585;-74
2023/02/14 12:15:39;;;;;;;;;74.00;56.00;;;;;11.47;56.61;102386.94;6330001;22;46458;-73
2023/02/14 12:18:05;;;;;;;;;73.25;54.00;;;;;11.53;56.72;102381.41;6330870;22;45801;-72
2023/02/14 12:20:42;;;;;;;;;68.75;53.00;;;;;11.57;56.18;102380.31;6331523;22;45540;-73
2023/02/14 12:23:19;;;;;;;;;69.00;54.00;;;;;11.59;56.15;102374.09;6330914;22;45568;-73
2023/02/14 12:25:53;;;;;;;;;73.75;55.00;;;;;11.65;56.22;102371.19;6330986;22;46291;-74
2023/02/14 12:28:27;;;;;;;;;74.00;56.50;;;;;11.70;56.02;102370.97;6331573;22;45935;-73
2023/02/14 12:30:52;;;;;;;;;71.00;55.25;;;;;11.72;55.92;102350.72;6331950;22;45493;-74
2023/02/14 12:33:19;;;;;;;;;74.50;55.75;;;;;11.82;56.05;102362.53;6331545;22;46430;-72
2023/02/14 12:36:27;;;;;;;;;74.25;54.00;;;;;11.89;55.99;102355.19;6332014;22;46239;-73
2023/02/14 12:42:44;;;;;;;;;73.50;55.25;;;;;12.00;55.68;102347.66;6204951;22;45746;-72
2023/02/14 12:45:47;;;;;;;;;71.00;53.00;;;;;12.04;55.60;102339.53;6204149;22;46437;-72
2023/02/14 12:48:37;;;;;;;;;73.00;57.25;;;;;12.12;55.72;102334.75;6204123;22;46320;-73
2023/02/14 12:51:21;;;;;;;;;74.00;55.00;;;;;12.17;55.38;102332.75;6204715;22;45915;-72
2023/02/14 13:00:41;;;;;;;;;67.50;53.00;;;;;12.36;55.31;102314.25;6204625;22;45749;-73
2023/02/14 13:03:31;;;;;;;;;73.50;54.25;;;;;12.40;54.85;102318.47;6204545;22;46106;-74
2023/02/14 13:05:59;;;;;;;;;67.00;52.25;;;;;12.46;54.93;102314.66;6204513;22;45804;-73
2023/02/14 13:08:48;;;;;;;;;69.75;54.00;;;;;12.46;55.06;102288.38;6203639;22;47379;-72
2023/02/14 13:11:35;;;;;;;;;64.00;50.75;;;;;12.54;54.03;102296.69;6203441;22;46354;-72
2023/02/14 13:14:42;;;;;;;;;67.75;51.25;;;;;12.58;54.04;102291.19;6207499;22;45871;-72
2023/02/14 13:17:13;;;;;;;;;72.00;55.00;;;;;12.65;54.32;102288.25;6204486;22;45814;-73